createdAt,value
2022-08-26T00:02:20.583Z,97703.69
2022-08-26T00:04:50.453Z,97711.19
2022-08-26T00:07:19.943Z,97714.41
2022-08-26T00:09:50.093Z,97718.19
2022-08-26T00:12:31.502Z,97716.03
2022-08-26T00:15:08.844Z,97716.19
2022-08-26T00:17:40.341Z,97716.97
2022-08-26T00:20:21.449Z,97717.19
2022-08-26T00:22:50.788Z,97713.44
2022-08-26T00:25:20.251Z,97718.41
2022-08-26T00:27:50.175Z,97717.88
2022-08-26T00:30:27.495Z,97717.41
2022-08-26T00:32:57.505Z,97723.75
2022-08-26T00:35:27.974Z,97720.16
2022-08-26T00:37:58.380Z,97722.91
2022-08-26T00:40:36.324Z,97717.69
2022-08-26T00:43:07.584Z,97716.56
2022-08-26T00:45:48.407Z,97720.50
2022-08-26T00:48:21.032Z,97727.97
2022-08-26T00:50:56.795Z,97724.09
2022-08-26T00:53:29.990Z,97733.75
2022-08-26T00:56:07.346Z,97735.34
2022-08-26T00:58:40.207Z,97739.03
2022-08-26T01:01:12.326Z,97744.06
2022-08-26T01:03:43.798Z,97746.31
2022-08-26T01:06:15.520Z,97748.63
2022-08-26T01:08:44.874Z,97751.72
2022-08-26T01:11:14.522Z,97768.00
2022-08-26T01:13:45.917Z,97762.66
2022-08-26T01:16:17.566Z,97765.47
2022-08-26T01:18:47.995Z,97768.09
2022-08-26T01:21:30.787Z,97767.81
2022-08-26T01:24:01.972Z,97773.16
2022-08-26T01:26:41.501Z,97782.16
2022-08-26T01:29:19.051Z,97786.91
2022-08-26T01:31:54.855Z,97793.88
2022-08-26T01:34:30.450Z,97795.41
2022-08-26T01:37:13.638Z,97799.50
2022-08-26T01:39:48.789Z,97809.47
2022-08-26T01:42:20.029Z,97809.22
2022-08-26T01:45:05.202Z,97811.38
2022-08-26T01:47:37.597Z,97814.28
2022-08-26T01:50:12.236Z,97812.41
2022-08-26T01:52:51.660Z,97815.44
2022-08-26T01:55:33.030Z,97812.34
2022-08-26T01:58:07.003Z,97816.72
2022-08-26T02:00:38.133Z,97814.81
2022-08-26T02:03:18.075Z,97812.03
2022-08-26T02:05:51.311Z,97817.31
2022-08-26T02:08:26.778Z,97820.38
2022-08-26T02:10:56.823Z,97814.09
2022-08-26T02:13:31.558Z,97816.75
2022-08-26T02:16:05.055Z,97809.97
2022-08-26T02:18:40.753Z,97809.88
2022-08-26T02:21:13.087Z,97804.41
2022-08-26T02:23:42.692Z,97811.97
2022-08-26T02:26:23.116Z,97806.69
2022-08-26T02:29:06.535Z,97813.38
2022-08-26T02:31:37.185Z,97807.66
2022-08-26T02:34:13.124Z,97809.78
2022-08-26T02:36:44.525Z,97818.00
2022-08-26T02:39:16.904Z,97809.63
2022-08-26T02:41:51.637Z,97809.22
2022-08-26T02:44:20.869Z,97815.88
2022-08-26T02:46:50.098Z,97810.00
2022-08-26T02:49:19.468Z,97807.25
2022-08-26T02:51:50.492Z,97819.50
2022-08-26T02:54:22.770Z,97812.81
2022-08-26T02:56:52.920Z,97817.97
2022-08-26T02:59:24.479Z,97824.81
2022-08-26T03:01:56.105Z,97826.78
2022-08-26T03:04:26.245Z,97833.59
2022-08-26T03:06:56.334Z,97830.53
2022-08-26T03:09:26.328Z,97830.09
2022-08-26T03:11:56.448Z,97832.44
2022-08-26T03:14:26.073Z,97839.56
2022-08-26T03:16:56.438Z,97832.72
2022-08-26T03:19:27.204Z,97846.50
2022-08-26T03:21:57.857Z,97843.03
2022-08-26T03:24:27.805Z,97849.13
2022-08-26T03:26:57.164Z,97852.91
2022-08-26T03:29:44.742Z,97849.81
2022-08-26T03:32:19.129Z,97858.13
2022-08-26T03:34:48.829Z,97857.84
2022-08-26T03:37:18.125Z,97851.25
2022-08-26T03:39:48.122Z,97861.38
2022-08-26T03:42:17.741Z,97859.13
2022-08-26T03:44:52.646Z,97862.09
2022-08-26T03:47:21.936Z,97860.69
2022-08-26T03:49:51.075Z,97866.16
2022-08-26T03:52:20.984Z,97867.03
2022-08-26T03:54:50.303Z,97867.78
2022-08-26T03:57:19.742Z,97861.88
2022-08-26T03:59:48.663Z,97866.84
2022-08-26T04:02:18.370Z,97870.91
2022-08-26T04:04:47.907Z,97878.38
2022-08-26T04:07:17.232Z,97879.09
2022-08-26T04:09:47.778Z,97879.63
2022-08-26T04:12:18.118Z,97877.91
2022-08-26T04:14:48.503Z,97881.84
2022-08-26T04:17:17.729Z,97890.34
2022-08-26T04:19:46.885Z,97884.66
2022-08-26T04:22:16.280Z,97884.34
2022-08-26T04:24:54.225Z,97893.94
2022-08-26T04:27:25.364Z,97893.84
2022-08-26T04:29:55.290Z,97893.94
2022-08-26T04:32:24.784Z,97897.31
2022-08-26T04:34:54.059Z,97904.69
2022-08-26T04:37:23.096Z,97904.75
2022-08-26T04:39:55.374Z,97902.84
2022-08-26T04:42:26.255Z,97906.03
2022-08-26T04:44:56.440Z,97905.19
2022-08-26T04:47:30.346Z,97905.00
2022-08-26T04:50:02.135Z,97908.25
2022-08-26T04:52:31.202Z,97907.56
2022-08-26T04:55:00.182Z,97906.19
2022-08-26T04:57:29.728Z,97914.75
2022-08-26T04:59:58.982Z,97916.06
2022-08-26T05:02:29.780Z,97913.59
2022-08-26T05:04:59.369Z,97914.88
2022-08-26T05:07:29.090Z,97907.66
2022-08-26T05:09:59.148Z,97913.78
2022-08-26T05:12:31.293Z,97923.41
2022-08-26T05:15:01.035Z,97914.22
2022-08-26T05:17:30.493Z,97914.59
2022-08-26T05:19:59.658Z,97914.84
2022-08-26T05:22:29.170Z,97914.75
2022-08-26T05:24:58.325Z,97914.28
2022-08-26T05:27:27.601Z,97915.91
2022-08-26T05:29:59.857Z,97910.72
2022-08-26T05:32:30.362Z,97914.22
2022-08-26T05:34:59.489Z,97915.81
2022-08-26T05:37:32.004Z,97908.16
2022-08-26T05:40:03.565Z,97912.88
2022-08-26T05:42:33.134Z,97911.00
2022-08-26T05:45:03.628Z,97904.41
2022-08-26T05:47:34.043Z,97893.91
2022-08-26T05:50:06.530Z,97894.75
2022-08-26T05:52:36.622Z,97900.78
2022-08-26T05:55:07.748Z,97898.69
2022-08-26T05:57:42.236Z,97890.47
2022-08-26T06:00:13.965Z,97895.06
2022-08-26T06:02:43.982Z,97892.59
2022-08-26T06:05:17.889Z,97887.72
2022-08-26T06:08:05.326Z,97884.84
2022-08-26T06:10:37.348Z,97889.75
2022-08-26T06:13:12.545Z,97886.00
2022-08-26T06:15:47.478Z,97883.47
2022-08-26T06:18:19.001Z,97887.84
2022-08-26T06:20:54.582Z,97885.38
2022-08-26T06:23:47.594Z,97883.34
2022-08-26T06:26:18.150Z,97884.94
2022-08-26T06:28:47.341Z,97880.69
2022-08-26T06:31:17.057Z,97873.16
2022-08-26T06:33:46.864Z,97874.16
2022-08-26T06:36:21.232Z,97872.94
2022-08-26T06:38:51.390Z,97870.06
2022-08-26T06:41:24.118Z,97875.59
2022-08-26T06:43:54.424Z,97877.16
2022-08-26T06:46:23.887Z,97873.75
2022-08-26T06:48:56.389Z,97875.59
2022-08-26T06:51:29.168Z,97877.84
2022-08-26T06:54:01.261Z,97874.97
2022-08-26T06:56:36.289Z,97872.22
2022-08-26T06:59:07.240Z,97872.00
2022-08-26T07:01:43.011Z,97869.84
2022-08-26T07:04:20.218Z,97864.84
2022-08-26T07:06:53.849Z,97856.84
2022-08-26T07:09:25.621Z,97853.59
2022-08-26T07:11:57.117Z,97855.88
2022-08-26T07:14:27.331Z,97847.06
2022-08-26T07:16:56.928Z,97852.22
2022-08-26T07:19:29.882Z,97847.94
2022-08-26T07:22:06.778Z,97836.94
2022-08-26T07:24:44.326Z,97831.63
2022-08-26T07:27:18.440Z,97826.69
2022-08-26T07:29:48.194Z,97823.31
2022-08-26T07:32:22.847Z,97821.84
2022-08-26T07:34:52.787Z,97827.13
2022-08-26T07:37:22.285Z,97816.44
2022-08-26T07:39:52.575Z,97823.28
2022-08-26T07:42:22.172Z,97815.63
2022-08-26T07:44:51.897Z,97820.88
2022-08-26T07:47:25.430Z,97812.53
2022-08-26T07:49:59.474Z,97809.31
2022-08-26T07:52:32.010Z,97806.28
2022-08-26T07:55:04.098Z,97790.03
2022-08-26T07:57:33.961Z,97790.94
2022-08-26T08:00:07.631Z,97781.78
2022-08-26T08:02:41.010Z,97797.50
2022-08-26T08:05:10.820Z,97794.75
2022-08-26T08:07:45.348Z,97796.34
2022-08-26T08:10:19.345Z,97791.59
2022-08-26T08:12:51.917Z,97798.41
2022-08-26T08:15:25.993Z,97802.75
2022-08-26T08:17:56.622Z,97805.22
2022-08-26T08:20:29.551Z,97803.91
2022-08-26T08:22:59.600Z,97807.25
2022-08-26T08:25:28.703Z,97811.28
2022-08-26T08:27:57.736Z,97818.53
2022-08-26T08:30:28.056Z,97817.00
2022-08-26T08:32:57.678Z,97826.66
2022-08-26T08:35:27.430Z,97836.09
2022-08-26T08:37:58.031Z,97846.03
2022-08-26T08:40:29.281Z,97859.03
2022-08-26T08:43:01.573Z,97842.09
2022-08-26T08:45:35.943Z,97837.34
2022-08-26T08:48:15.248Z,97844.66
2022-08-26T08:50:50.466Z,97850.00
2022-08-26T08:53:35.096Z,97872.56
2022-08-26T08:56:12.732Z,97864.84
2022-08-26T08:59:12.459Z,97835.53
2022-08-26T09:02:01.993Z,97834.38
2022-08-26T09:04:43.654Z,97803.16
2022-08-26T09:07:19.908Z,97778.28
2022-08-26T09:10:01.034Z,97774.94
2022-08-26T09:12:32.888Z,97781.53
2022-08-26T09:15:22.217Z,97770.53
2022-08-26T09:18:13.269Z,97754.03
2022-08-26T09:20:58.453Z,97762.34
2022-08-26T09:23:28.399Z,97762.06
2022-08-26T09:26:01.468Z,97753.66
2022-08-26T09:28:32.815Z,97751.25
2022-08-26T09:31:16.048Z,97753.53
2022-08-26T09:33:46.035Z,97755.78
2022-08-26T09:36:17.135Z,97761.72
2022-08-26T09:38:47.383Z,97755.44
2022-08-26T09:41:26.939Z,97740.56
2022-08-26T09:44:17.885Z,97729.53
2022-08-26T09:47:03.669Z,97730.28
2022-08-26T09:49:42.778Z,97746.88
2022-08-26T09:52:17.229Z,97775.69
2022-08-26T09:54:59.790Z,97778.78
2022-08-26T09:57:32.826Z,97792.91
2022-08-26T10:00:02.611Z,97781.03
2022-08-26T10:02:47.833Z,97778.19
2022-08-26T10:05:31.818Z,97769.09
2022-08-26T10:08:01.559Z,97763.69
2022-08-26T10:10:40.910Z,97754.69
2022-08-26T10:13:24.490Z,97740.22
2022-08-26T10:16:28.605Z,97711.50
2022-08-26T10:19:09.459Z,97704.44
2022-08-26T10:21:54.012Z,97695.31
2022-08-26T10:24:32.009Z,97684.66
2022-08-26T10:27:37.150Z,97677.22
2022-08-26T10:30:14.576Z,97681.72
2022-08-26T10:32:50.545Z,97670.34
2022-08-26T10:35:20.954Z,97667.97
2022-08-26T10:37:58.096Z,97664.22
2022-08-26T10:40:29.197Z,97657.59
2022-08-26T10:43:11.335Z,97654.19
2022-08-26T10:45:44.714Z,97655.41
2022-08-26T10:48:45.484Z,97656.56
2022-08-26T10:51:17.713Z,97648.84
2022-08-26T10:53:51.704Z,97651.97
2022-08-26T10:56:46.009Z,97659.06
2022-08-26T10:59:50.831Z,97658.72
2022-08-26T11:02:46.953Z,97658.91
2022-08-26T11:05:21.244Z,97659.53
2022-08-26T11:07:57.455Z,97657.63
2022-08-26T11:10:26.834Z,97661.28
2022-08-26T11:13:08.042Z,97665.91
2022-08-26T11:15:40.338Z,97653.84
2022-08-26T11:18:33.594Z,97654.97
2022-08-26T11:21:03.592Z,97661.47
2022-08-26T11:23:50.695Z,97653.06
2022-08-26T11:26:55.027Z,97645.28
2022-08-26T11:29:58.416Z,97638.78
2022-08-26T11:32:50.772Z,97639.78
2022-08-26T11:35:26.058Z,97648.28
2022-08-26T11:38:00.735Z,97646.47
2022-08-26T11:40:39.444Z,97630.50
2022-08-26T11:43:20.653Z,97632.16
2022-08-26T11:46:01.589Z,97620.78
2022-08-26T11:48:35.965Z,97622.13
2022-08-26T11:51:24.217Z,97618.69
2022-08-26T11:54:09.202Z,97611.56
2022-08-26T11:56:40.783Z,97612.69
2022-08-26T11:59:17.409Z,97614.78
2022-08-26T12:01:51.891Z,97607.00
2022-08-26T12:04:50.429Z,97607.13
2022-08-26T12:07:26.332Z,97606.00
2022-08-26T12:10:02.082Z,97607.53
2022-08-26T12:12:43.510Z,97613.97
2022-08-26T12:15:18.213Z,97605.75
2022-08-26T12:17:53.382Z,97617.97
2022-08-26T12:20:49.534Z,97614.22
2022-08-26T12:23:37.808Z,97615.31
2022-08-26T12:26:28.655Z,97615.47
2022-08-26T12:29:02.180Z,97618.53
2022-08-26T12:31:44.331Z,97620.06
2022-08-26T12:34:19.556Z,97625.78
2022-08-26T12:39:38.899Z,97628.66
2022-08-26T12:42:25.830Z,97628.97
2022-08-26T12:45:05.107Z,97635.88
2022-08-26T12:47:44.211Z,97634.66
2022-08-26T12:50:27.052Z,97641.34
2022-08-26T12:53:03.129Z,97642.31
2022-08-26T12:55:40.261Z,97639.94
2022-08-26T12:58:32.640Z,97645.34
2022-08-26T13:01:09.465Z,97642.03
2022-08-26T13:03:38.724Z,97644.34
2022-08-26T13:06:16.046Z,97638.00
2022-08-26T13:09:07.505Z,97644.63
2022-08-26T13:11:56.579Z,97646.47
2022-08-26T13:14:26.122Z,97635.75
2022-08-26T13:16:55.941Z,97643.50
2022-08-26T13:19:27.203Z,97639.06
2022-08-26T13:21:59.307Z,97638.22
2022-08-26T13:24:39.862Z,97638.66
2022-08-26T13:27:11.079Z,97647.09
2022-08-26T13:29:40.790Z,97645.19
2022-08-26T13:32:11.103Z,97647.00
2022-08-26T13:34:41.575Z,97641.16
2022-08-26T13:37:10.811Z,97645.84
2022-08-26T13:39:40.466Z,97649.75
2022-08-26T13:42:10.499Z,97648.50
2022-08-26T13:44:40.146Z,97654.75
2022-08-26T13:47:09.629Z,97654.34
2022-08-26T13:49:38.715Z,97649.63
2022-08-26T13:52:07.923Z,97651.41
2022-08-26T13:54:37.397Z,97657.09
2022-08-26T13:57:07.186Z,97658.47
2022-08-26T13:59:36.486Z,97655.00
2022-08-26T14:02:05.961Z,97663.09
2022-08-26T14:04:35.298Z,97655.56
2022-08-26T14:07:05.954Z,97657.78
2022-08-26T14:09:38.295Z,97656.69
2022-08-26T14:12:07.857Z,97661.84
2022-08-26T14:14:37.272Z,97657.91
2022-08-26T14:17:06.317Z,97656.56
2022-08-26T14:19:35.773Z,97667.94
2022-08-26T14:22:06.035Z,97668.09
2022-08-26T14:24:35.347Z,97669.31
2022-08-26T14:27:04.594Z,97665.41
2022-08-26T14:29:33.700Z,97668.47
2022-08-26T14:32:08.366Z,97672.25
2022-08-26T14:34:37.560Z,97670.00
2022-08-26T14:37:08.169Z,97672.41
2022-08-26T14:39:39.164Z,97671.69
2022-08-26T14:42:09.996Z,97681.97
2022-08-26T14:44:40.326Z,97683.47
2022-08-26T14:47:10.271Z,97688.47
2022-08-26T14:49:39.564Z,97684.63
2022-08-26T14:52:08.836Z,97679.34
2022-08-26T14:54:38.794Z,97682.25
2022-08-26T14:57:11.511Z,97679.91
2022-08-26T14:59:50.077Z,97676.88
2022-08-26T15:02:33.196Z,97683.19
2022-08-26T15:05:06.547Z,97683.25
2022-08-26T15:07:36.247Z,97681.84
2022-08-26T15:10:07.239Z,97684.91
2022-08-26T15:12:36.783Z,97680.06
2022-08-26T15:15:08.458Z,97684.06
2022-08-26T15:17:39.667Z,97686.03
2022-08-26T15:20:12.283Z,97696.84
2022-08-26T15:22:44.337Z,97684.63
2022-08-26T15:25:14.879Z,97686.28
2022-08-26T15:27:44.407Z,97691.28
2022-08-26T15:30:15.324Z,97683.66
2022-08-26T15:32:44.539Z,97693.53
2022-08-26T15:35:13.821Z,97698.81
2022-08-26T15:37:43.019Z,97704.03
2022-08-26T15:40:13.118Z,97699.59
2022-08-26T15:42:42.296Z,97692.22
2022-08-26T15:45:12.840Z,97691.81
2022-08-26T15:48:10.888Z,97691.25
2022-08-26T15:50:52.233Z,97686.84
2022-08-26T15:53:23.047Z,97688.72
2022-08-26T15:55:56.329Z,97684.00
2022-08-26T15:58:27.293Z,97685.97
2022-08-26T16:00:57.934Z,97684.28
2022-08-26T16:03:27.201Z,97688.16
2022-08-26T16:05:56.256Z,97693.44
2022-08-26T16:08:25.589Z,97693.16
2022-08-26T16:11:03.344Z,97692.47
2022-08-26T16:13:39.708Z,97689.84
2022-08-26T16:16:09.884Z,97691.38
2022-08-26T16:18:39.195Z,97692.63
2022-08-26T16:21:13.328Z,97688.31
2022-08-26T16:23:45.263Z,97691.78
2022-08-26T16:26:19.136Z,97689.56
2022-08-26T16:28:48.806Z,97686.91
2022-08-26T16:31:18.223Z,97690.63
2022-08-26T16:33:47.644Z,97693.38
2022-08-26T16:36:17.553Z,97695.88
2022-08-26T16:38:54.583Z,97689.72
2022-08-26T16:41:28.148Z,97695.03
2022-08-26T16:43:57.712Z,97695.81
2022-08-26T16:46:28.760Z,97691.91
2022-08-26T16:48:59.934Z,97692.75
2022-08-26T16:51:29.996Z,97691.25
2022-08-26T16:54:00.473Z,97691.91
2022-08-26T16:56:34.033Z,97696.69
2022-08-26T16:59:06.241Z,97694.47
2022-08-26T17:01:35.928Z,97699.31
2022-08-26T17:04:05.170Z,97699.06
2022-08-26T17:06:35.248Z,97696.50
2022-08-26T17:09:04.995Z,97704.16
2022-08-26T17:11:34.678Z,97703.19
2022-08-26T17:14:04.146Z,97709.16
2022-08-26T17:16:33.771Z,97704.84
2022-08-26T17:19:03.780Z,97701.03
2022-08-26T17:21:35.514Z,97704.16
2022-08-26T17:24:08.246Z,97710.13
2022-08-26T17:26:38.737Z,97708.22
2022-08-26T17:29:08.486Z,97710.78
2022-08-26T17:31:37.660Z,97709.97
2022-08-26T17:34:07.401Z,97705.94
2022-08-26T17:36:36.485Z,97708.13
2022-08-26T17:39:05.735Z,97707.31
2022-08-26T17:41:34.867Z,97701.09
2022-08-26T17:44:04.173Z,97698.28
2022-08-26T17:46:38.200Z,97704.69
2022-08-26T17:49:07.692Z,97699.66
2022-08-26T17:51:36.850Z,97702.44
2022-08-26T17:54:06.196Z,97703.25
2022-08-26T17:56:35.433Z,97706.47
2022-08-26T17:59:05.217Z,97707.31
2022-08-26T18:01:34.781Z,97702.84
2022-08-26T18:04:05.405Z,97703.47
2022-08-26T18:06:35.946Z,97704.69
2022-08-26T18:09:05.406Z,97701.34
2022-08-26T18:11:34.984Z,97702.16
2022-08-26T18:14:04.013Z,97699.94
2022-08-26T18:16:39.742Z,97704.63
2022-08-26T18:19:09.878Z,97701.78
2022-08-26T18:21:40.246Z,97698.25
2022-08-26T18:24:13.823Z,97694.91
2022-08-26T18:26:49.829Z,97691.56
2022-08-26T18:29:20.886Z,97693.81
2022-08-26T18:31:50.777Z,97690.03
2022-08-26T18:34:20.581Z,97689.84
2022-08-26T18:36:50.001Z,97698.16
2022-08-26T18:39:22.122Z,97697.22
2022-08-26T18:41:54.213Z,97702.06
2022-08-26T18:44:24.484Z,97700.25
2022-08-26T18:46:54.077Z,97701.63
2022-08-26T18:49:23.880Z,97693.88
2022-08-26T18:51:53.418Z,97704.44
2022-08-26T18:54:22.471Z,97702.00
2022-08-26T18:56:53.324Z,97700.81
2022-08-26T18:59:28.473Z,97703.59
2022-08-26T19:02:00.139Z,97706.81
2022-08-26T19:04:29.462Z,97703.94
2022-08-26T19:06:58.916Z,97702.00
2022-08-26T19:09:28.422Z,97701.47
2022-08-26T19:11:57.834Z,97699.56
2022-08-26T19:14:27.821Z,97697.00
2022-08-26T19:16:57.163Z,97694.25
2022-08-26T19:19:26.205Z,97694.94
2022-08-26T19:21:56.330Z,97691.59
2022-08-26T19:24:27.413Z,97694.81
2022-08-26T19:27:01.172Z,97690.41
2022-08-26T19:29:34.071Z,97683.22
2022-08-26T19:32:04.319Z,97683.03
2022-08-26T19:34:33.901Z,97674.16
2022-08-26T19:37:03.490Z,97679.31
2022-08-26T19:39:32.927Z,97668.81
2022-08-26T19:42:01.920Z,97668.94
2022-08-26T19:44:49.766Z,97659.34
2022-08-26T19:47:18.987Z,97673.06
2022-08-26T19:49:48.086Z,97657.94
2022-08-26T19:52:18.133Z,97657.53
2022-08-26T19:54:47.188Z,97657.44
2022-08-26T19:57:16.907Z,97654.53
2022-08-26T19:59:46.554Z,97661.59
2022-08-26T20:02:16.458Z,97656.34
2022-08-26T20:04:45.733Z,97652.63
2022-08-26T20:07:18.506Z,97650.94
2022-08-26T20:09:49.895Z,97651.25
2022-08-26T20:12:19.810Z,97646.50
2022-08-26T20:14:49.168Z,97652.63
2022-08-26T20:17:18.388Z,97656.91
2022-08-26T20:20:06.622Z,97653.56
2022-08-26T20:22:56.303Z,97657.63
2022-08-26T20:25:25.831Z,97652.75
2022-08-26T20:27:54.743Z,97650.94
2022-08-26T20:30:23.889Z,97645.53
2022-08-26T20:32:53.803Z,97652.63
2022-08-26T20:35:24.894Z,97649.00
2022-08-26T20:37:54.136Z,97643.97
2022-08-26T20:40:23.664Z,97645.78
2022-08-26T20:42:52.855Z,97650.91
2022-08-26T20:45:22.259Z,97644.44
2022-08-26T20:47:51.861Z,97647.91
2022-08-26T20:50:21.324Z,97645.97
2022-08-26T20:52:50.901Z,97650.06
2022-08-26T20:55:20.197Z,97653.69
2022-08-26T20:57:50.433Z,97638.56
2022-08-26T21:00:24.565Z,97637.63
2022-08-26T21:02:57.407Z,97637.63
2022-08-26T21:05:27.657Z,97631.78
2022-08-26T21:07:56.983Z,97631.88
2022-08-26T21:10:26.639Z,97625.91
2022-08-26T21:12:55.878Z,97629.19
2022-08-26T21:15:25.452Z,97632.84
2022-08-26T21:17:55.058Z,97630.47
2022-08-26T21:20:25.573Z,97630.16
2022-08-26T21:22:54.612Z,97629.44
2022-08-26T21:25:23.882Z,97625.72
2022-08-26T21:27:53.424Z,97622.38
2022-08-26T21:30:22.533Z,97632.94
2022-08-26T21:32:51.756Z,97635.56
2022-08-26T21:35:20.888Z,97632.09
2022-08-26T21:37:50.204Z,97634.59
2022-08-26T21:40:19.561Z,97636.53
2022-08-26T21:42:49.002Z,97626.81
2022-08-26T21:45:18.358Z,97621.81
2022-08-26T21:47:47.786Z,97625.41
2022-08-26T21:50:17.116Z,97621.09
2022-08-26T21:52:46.284Z,97625.66
2022-08-26T21:55:15.321Z,97620.66
2022-08-26T21:57:44.657Z,97626.06
2022-08-26T22:00:16.726Z,97618.59
2022-08-26T22:02:46.565Z,97621.47
2022-08-26T22:05:15.586Z,97626.50
2022-08-26T22:07:44.932Z,97623.28
2022-08-26T22:10:14.233Z,97622.59
2022-08-26T22:12:43.445Z,97618.84
2022-08-26T22:15:13.288Z,97612.88
2022-08-26T22:17:42.408Z,97620.53
2022-08-26T22:20:16.726Z,97623.16
2022-08-26T22:22:46.251Z,97621.59
2022-08-26T22:25:15.350Z,97615.75
2022-08-26T22:27:44.933Z,97613.94
2022-08-26T22:30:14.242Z,97621.75
2022-08-26T22:32:45.101Z,97623.44
2022-08-26T22:35:28.774Z,97619.16
2022-08-26T22:38:00.094Z,97616.28
2022-08-26T22:40:29.395Z,97618.69
2022-08-26T22:42:58.791Z,97620.56
2022-08-26T22:45:32.477Z,97612.41
2022-08-26T22:48:05.672Z,97607.84
2022-08-26T22:50:35.195Z,97609.16
2022-08-26T22:53:04.629Z,97607.09
2022-08-26T22:55:33.891Z,97613.69
2022-08-26T22:58:02.955Z,97602.72
2022-08-26T23:00:32.612Z,97610.63
2022-08-26T23:03:03.808Z,97593.44
2022-08-26T23:05:33.640Z,97606.97
2022-08-26T23:08:03.095Z,97608.63
2022-08-26T23:10:34.145Z,97612.66
2022-08-26T23:13:04.675Z,97611.41
2022-08-26T23:15:33.709Z,97611.25
2022-08-26T23:18:03.679Z,97614.47
2022-08-26T23:20:33.992Z,97607.41
2022-08-26T23:23:03.748Z,97609.34
2022-08-26T23:25:33.708Z,97613.63
2022-08-26T23:28:03.226Z,97613.50
2022-08-26T23:30:35.647Z,97618.19
2022-08-26T23:33:05.069Z,97615.91
2022-08-26T23:35:34.030Z,97623.22
2022-08-26T23:38:03.826Z,97630.06
2022-08-26T23:40:36.969Z,97623.09
2022-08-26T23:43:09.883Z,97620.56
2022-08-26T23:45:39.541Z,97629.91
2022-08-26T23:48:09.919Z,97631.84
2022-08-26T23:50:57.796Z,97632.69
2022-08-26T23:53:26.968Z,97628.75
2022-08-26T23:55:56.477Z,97629.91
2022-08-26T23:58:25.660Z,97631.22
